Time;durP1;ratioP1;P1;durP2;ratioP2;P2;SDS_P1;SDS_P2;PMS_P1;PMS_P2;Temp;Humidity;BMP_temperature;BMP_pressure;BME280_temperature;BME280_humidity;BME280_pressure;Samples;Min_cycle;Max_cycle;Signal;HPM_P1;HPM_P2
2023/11/30 00:03:35;;;;;;;4.72;3.40;;;0.20;99.90;;;;;;25471652;23;20002;-58
2023/11/30 00:13:37;;;;;;;7.63;4.70;;;0.20;99.90;;;;;;25472283;23;20056;-52
2023/11/30 00:23:39;;;;;;;5.60;3.63;;;0.30;99.90;;;;;;25471660;23;20010;-58
2023/11/30 00:33:41;;;;;;;8.90;5.32;;;0.30;99.90;;;;;;25471519;23;20013;-58
2023/11/30 00:43:43;;;;;;;9.32;5.50;;;0.30;99.90;;;;;;25471196;23;20020;-51
2023/11/30 00:53:45;;;;;;;10.18;6.78;;;0.30;99.90;;;;;;25471304;23;20302;-58
2023/11/30 01:03:47;;;;;;;10.20;6.38;;;0.30;99.90;;;;;;25471138;23;20028;-57
2023/11/30 01:13:48;;;;;;;9.05;5.47;;;0.30;99.90;;;;;;25472610;23;20433;-58
2023/11/30 01:23:50;;;;;;;6.93;4.47;;;0.20;99.90;;;;;;25469963;23;20009;-57
2023/11/30 01:33:52;;;;;;;7.20;4.85;;;0.30;99.90;;;;;;25466458;23;20052;-55
2023/11/30 01:43:54;;;;;;;10.68;5.50;;;0.40;99.90;;;;;;25478048;23;20036;-58
2023/11/30 01:53:59;;;;;;;8.48;5.20;;;0.40;99.90;;;;;;25477686;23;20006;-58
2023/11/30 02:04:12;;;;;;;8.80;5.60;;;0.50;99.90;;;;;;25477127;23;20088;-57
2023/11/30 02:14:16;;;;;;;12.32;7.28;;;0.50;99.90;;;;;;25516222;23;20001;-58
2023/11/30 02:24:18;;;;;;;13.18;7.55;;;0.30;99.90;;;;;;25476157;23;20061;-58
2023/11/30 02:34:20;;;;;;;10.07;6.50;;;0.20;99.90;;;;;;25476207;23;20006;-57
2023/11/30 02:44:22;;;;;;;9.98;6.20;;;0.00;99.90;;;;;;25474876;23;20017;-58
2023/11/30 02:54:23;;;;;;;10.75;5.47;;;0.00;99.90;;;;;;25474890;23;20009;-58
2023/11/30 03:04:25;;;;;;;6.45;4.53;;;0.00;99.90;;;;;;25474792;23;20001;-55
2023/11/30 03:14:27;;;;;;;6.95;3.88;;;0.00;99.90;;;;;;25474756;23;20013;-58
2023/11/30 03:24:28;;;;;;;3.95;2.67;;;-0.10;99.90;;;;;;25471112;23;20014;-58
2023/11/30 03:34:31;;;;;;;3.63;2.70;;;-0.10;99.90;;;;;;25472335;23;20006;-58
2023/11/30 03:44:32;;;;;;;2.80;2.00;;;-0.10;99.90;;;;;;25473288;23;20013;-54
2023/11/30 03:54:34;;;;;;;3.13;2.08;;;-0.10;99.90;;;;;;25472829;23;20009;-58
2023/11/30 04:04:39;;;;;;;2.70;1.92;;;-0.10;99.90;;;;;;25472339;23;20002;-48
2023/11/30 04:14:42;;;;;;;4.93;3.50;;;-0.10;99.90;;;;;;25472107;23;20013;-48
2023/11/30 04:24:44;;;;;;;5.97;3.65;;;-0.10;99.90;;;;;;25445308;23;20079;-58
2023/11/30 04:34:46;;;;;;;7.20;4.10;;;-0.20;99.90;;;;;;25471549;23;20454;-59
2023/11/30 04:44:50;;;;;;;7.32;4.43;;;-0.20;99.90;;;;;;25471104;23;20516;-58
2023/11/30 04:54:52;;;;;;;7.10;4.57;;;-0.20;99.90;;;;;;25471025;23;20009;-50
2023/11/30 05:04:54;;;;;;;6.78;4.28;;;-0.20;99.90;;;;;;25469331;23;20010;-58
2023/11/30 05:14:56;;;;;;;7.72;4.60;;;-0.20;99.90;;;;;;25476243;23;20009;-58
2023/11/30 05:24:57;;;;;;;5.32;3.47;;;-0.20;99.90;;;;;;25477280;23;20005;-58
2023/11/30 05:34:59;;;;;;;6.20;3.85;;;-0.20;99.90;;;;;;25478054;23;20013;-48
2023/11/30 05:45:04;;;;;;;6.53;4.00;;;-0.20;99.90;;;;;;25477472;23;20021;-58
2023/11/30 05:55:07;;;;;;;5.55;3.30;;;-0.20;99.90;;;;;;25477156;23;20005;-57
2023/11/30 06:05:09;;;;;;;3.80;2.65;;;-0.20;99.90;;;;;;25476950;23;20386;-58
2023/11/30 06:15:11;;;;;;;4.10;2.83;;;-0.20;99.90;;;;;;25475135;23;20068;-58
2023/11/30 06:25:13;;;;;;;4.55;2.38;;;-0.10;99.90;;;;;;25477279;23;20005;-47
2023/11/30 06:35:16;;;;;;;2.75;1.52;;;-0.20;99.90;;;;;;25476151;23;20005;-58
2023/11/30 06:45:17;;;;;;;1.58;1.00;;;-0.20;99.90;;;;;;25342331;23;20022;-58
2023/11/30 06:55:19;;;;;;;1.33;0.70;;;-0.20;99.90;;;;;;25342483;23;20088;-48
2023/11/30 07:05:21;;;;;;;2.80;0.10;;;-0.10;99.90;;;;;;25341881;23;20383;-50
2023/11/30 07:15:23;;;;;;;0.50;0.20;;;-0.10;99.90;;;;;;25445952;23;20382;-58
2023/11/30 07:25:25;;;;;;;0.10;0.10;;;0.10;99.90;;;;;;25474098;23;20001;-58
2023/11/30 07:35:27;;;;;;;0.10;0.10;;;0.20;99.90;;;;;;25473318;23;20005;-48
2023/11/30 07:45:29;;;;;;;0.10;0.10;;;0.40;99.90;;;;;;25472377;23;20068;-58
2023/11/30 07:55:31;;;;;;;0.20;0.10;;;0.50;99.90;;;;;;25472873;23;20009;-58
2023/11/30 08:05:34;;;;;;;0.20;0.10;;;0.70;99.90;;;;;;25472566;23;20001;-58
2023/11/30 08:15:37;;;;;;;0.00;0.00;;;0.90;99.90;;;;;;25471789;23;20006;-59
2023/11/30 08:25:38;;;;;;;0.43;0.00;;;0.90;99.90;;;;;;25473460;23;20005;-59
2023/11/30 08:35:40;;;;;;;0.20;0.00;;;1.00;99.90;;;;;;25471778;23;20060;-58
2023/11/30 08:45:42;;;;;;;0.00;0.00;;;1.20;99.90;;;;;;25471431;23;20017;-56
2023/11/30 08:55:45;;;;;;;0.00;0.00;;;1.30;99.90;;;;;;25471131;23;20386;-58
2023/11/30 09:05:48;;;;;;;0.13;0.03;;;1.30;99.90;;;;;;25470967;23;20005;-57
2023/11/30 09:15:50;;;;;;;0.10;0.10;;;1.30;99.90;;;;;;25470911;23;20010;-52
2023/11/30 09:25:52;;;;;;;13.23;0.25;;;1.30;99.90;;;;;;25469170;23;20091;-51
2023/11/30 09:36:02;;;;;;;0.10;0.00;;;1.40;99.90;;;;;;25470524;23;20033;-53
2023/11/30 09:46:05;;;;;;;0.00;0.00;;;1.50;99.90;;;;;;25479626;23;20009;-49
2023/11/30 09:56:07;;;;;;;5.25;0.28;;;1.70;99.90;;;;;;25471246;23;20028;-52
2023/11/30 10:06:09;;;;;;;0.40;0.10;;;1.70;99.90;;;;;;25477099;23;20005;-51
2023/11/30 10:16:11;;;;;;;6.10;0.40;;;1.50;99.90;;;;;;25476907;23;20001;-59
2023/11/30 10:26:22;;;;;;;2.97;0.20;;;1.40;99.90;;;;;;25476625;23;20082;-46
2023/11/30 10:36:25;;;;;;;;;;;1.60;99.90;;;;;;25517469;23;20333;-55
2023/11/30 10:46:28;;;;;;;0.10;0.00;;;1.70;99.90;;;;;;25475655;23;19913;-59
2023/11/30 10:56:32;;;;;;;2.22;0.00;;;1.80;99.90;;;;;;25473658;23;20014;-53
2023/11/30 11:06:34;;;;;;;1.98;0.22;;;1.80;99.90;;;;;;25474305;23;20006;-54
2023/11/30 11:16:41;;;;;;;50.83;1.83;;;1.70;99.90;;;;;;25474711;23;20009;-57
2023/11/30 11:26:54;;;;;;;1.05;0.30;;;1.70;99.90;;;;;;25514963;23;20006;-58
2023/11/30 11:36:56;;;;;;;7.75;0.10;;;1.70;99.90;;;;;;25512251;23;20024;-58
2023/11/30 11:46:59;;;;;;;0.65;0.00;;;1.70;99.90;;;;;;25472088;23;20076;-56
2023/11/30 11:57:02;;;;;;;0.22;0.00;;;1.70;99.90;;;;;;25473086;23;20029;-55
2023/11/30 12:07:15;;;;;;;0.00;0.00;;;1.60;99.90;;;;;;25472593;23;20376;-57
2023/11/30 12:17:17;;;;;;;0.00;0.00;;;1.50;99.90;;;;;;25513300;23;20005;-51
2023/11/30 12:27:18;;;;;;;0.00;0.00;;;1.70;99.90;;;;;;25470585;23;20010;-50
2023/11/30 12:37:20;;;;;;;0.00;0.00;;;1.50;99.90;;;;;;25471830;23;20005;-52
2023/11/30 12:47:24;;;;;;;6.40;0.10;;;1.30;99.90;;;;;;25471016;23;20017;-57
2023/11/30 12:57:26;;;;;;;42.80;1.27;;;1.10;99.90;;;;;;25469947;23;20006;-56
2023/11/30 13:07:27;;;;;;;4.57;0.10;;;1.00;99.90;;;;;;25470867;23;20092;-58
2023/11/30 13:17:33;;;;;;;3.50;0.10;;;0.90;99.90;;;;;;25470708;23;20006;-51
2023/11/30 13:27:35;;;;;;;71.57;2.28;;;0.90;99.90;;;;;;25470684;23;20002;-53
2023/11/30 13:37:38;;;;;;;9.05;0.40;;;0.90;99.90;;;;;;25475660;23;20013;-54
2023/11/30 13:47:41;;;;;;;45.45;1.23;;;0.90;99.90;;;;;;25477724;23;20080;-55
2023/11/30 13:57:43;;;;;;;16.13;0.70;;;1.00;99.90;;;;;;25477769;23;20002;-58
2023/11/30 14:07:45;;;;;;;0.10;0.00;;;1.00;99.90;;;;;;25477371;23;20006;-58
2023/11/30 14:17:49;;;;;;;6.68;0.22;;;0.90;99.90;;;;;;25475086;23;20001;-58
2023/11/30 14:27:55;;;;;;;0.00;0.00;;;0.90;99.90;;;;;;25475671;23;20057;-59
2023/11/30 14:37:56;;;;;;;13.77;0.55;;;1.00;99.90;;;;;;25475420;23;20005;-58
2023/11/30 14:48:00;;;;;;;0.10;0.00;;;0.90;99.90;;;;;;25475042;23;20014;-58
2023/11/30 14:58:03;;;;;;;17.33;0.52;;;0.90;99.90;;;;;;25475316;23;20006;-58
2023/11/30 15:08:05;;;;;;;0.17;0.00;;;1.10;99.90;;;;;;25474768;23;20006;-56
2023/11/30 15:18:07;;;;;;;0.10;0.10;;;1.30;99.90;;;;;;25474646;23;20012;-54
2023/11/30 15:28:10;;;;;;;0.20;0.10;;;2.60;99.90;;;;;;25472778;23;20006;-56
2023/11/30 15:38:12;;;;;;;0.00;0.00;;;3.50;99.90;;;;;;25475429;23;20009;-57
2023/11/30 15:48:14;;;;;;;207.65;6.53;;;3.20;99.90;;;;;;25472801;23;20014;-58
2023/11/30 15:58:16;;;;;;;0.90;0.15;;;2.30;99.90;;;;;;25472528;23;20005;-52
2023/11/30 16:08:18;;;;;;;0.10;0.00;;;2.50;99.90;;;;;;25471098;23;20037;-59
2023/11/30 16:18:22;;;;;;;0.13;0.10;;;3.40;99.90;;;;;;25472160;23;20086;-61
2023/11/30 16:28:23;;;;;;;0.50;0.10;;;3.30;99.90;;;;;;25445301;23;20005;-50
2023/11/30 16:38:25;;;;;;;20.17;0.77;;;3.50;99.90;;;;;;25471143;23;20080;-60
2023/11/30 16:48:27;;;;;;;0.28;0.00;;;4.00;99.90;;;;;;25471122;23;20010;-61
2023/11/30 16:58:30;;;;;;;0.10;0.00;;;4.40;99.90;;;;;;25471343;23;20009;-52
2023/11/30 17:08:33;;;;;;;0.10;0.00;;;4.40;99.90;;;;;;25474299;23;20433;-51
2023/11/30 17:18:35;;;;;;;0.20;0.00;;;4.30;99.90;;;;;;25478928;23;20005;-51
2023/11/30 17:28:38;;;;;;;0.38;0.00;;;4.20;99.90;;;;;;25477715;23;20021;-54
2023/11/30 17:38:43;;;;;;;0.82;0.00;;;4.80;99.90;;;;;;25478101;23;20009;-53
2023/11/30 17:48:45;;;;;;;0.00;0.00;;;5.00;99.90;;;;;;25518801;23;20376;-56
2023/11/30 17:58:47;;;;;;;0.08;0.08;;;4.90;99.90;;;;;;25477822;23;20029;-48
2023/11/30 18:08:49;;;;;;;0.60;0.30;;;4.30;99.90;;;;;;25477329;23;20005;-56
2023/11/30 18:18:51;;;;;;;0.22;0.13;;;4.00;99.90;;;;;;25475306;23;20005;-53
2023/11/30 18:28:52;;;;;;;0.32;0.00;;;4.60;99.90;;;;;;25476026;23;20010;-54
2023/11/30 18:38:54;;;;;;;0.00;0.00;;;4.80;99.90;;;;;;25475797;23;20011;-53
2023/11/30 18:48:56;;;;;;;16.23;1.30;;;5.00;99.90;;;;;;25514996;23;20014;-54
2023/11/30 18:59:03;;;;;;;0.80;0.10;;;4.40;99.90;;;;;;25513735;23;20006;-53
2023/11/30 19:09:06;;;;;;;0.05;0.05;;;4.20;99.90;;;;;;25474574;23;20041;-53
2023/11/30 19:19:08;;;;;;;0.20;0.10;;;4.80;99.90;;;;;;25474537;23;20075;-61
2023/11/30 19:29:10;;;;;;;0.10;0.10;;;4.70;99.90;;;;;;25340476;23;20017;-52
2023/11/30 19:39:12;;;;;;;0.20;0.08;;;4.90;99.90;;;;;;25340492;23;20014;-55
2023/11/30 19:49:14;;;;;;;0.08;0.00;;;5.30;99.90;;;;;;25340283;23;20022;-53
2023/11/30 19:59:16;;;;;;;0.80;0.10;;;5.40;99.90;;;;;;25445277;23;20319;-61
2023/11/30 20:09:19;;;;;;;0.15;0.00;;;5.30;99.90;;;;;;25472558;23;20017;-52
2023/11/30 20:19:20;;;;;;;0.10;0.05;;;5.00;99.90;;;;;;25472313;23;20059;-55
2023/11/30 20:29:26;;;;;;;0.47;0.13;;;5.20;99.90;;;;;;25471940;23;20005;-53
2023/11/30 20:39:28;;;;;;;0.10;0.10;;;5.50;99.90;;;;;;25471192;23;20015;-61
2023/11/30 20:49:31;;;;;;;0.30;0.15;;;5.40;99.90;;;;;;25471289;23;20013;-61
2023/11/30 20:59:33;;;;;;;0.20;0.20;;;5.20;99.90;;;;;;25471126;23;20060;-61
2023/11/30 21:09:36;;;;;;;0.50;0.30;;;4.70;99.90;;;;;;25470872;23;20059;-52
2023/11/30 21:19:38;;;;;;;0.28;0.10;;;5.20;99.90;;;;;;25470327;23;20066;-51
2023/11/30 21:29:40;;;;;;;0.50;0.10;;;5.10;99.90;;;;;;25470783;23;20017;-62
2023/11/30 21:39:41;;;;;;;0.43;0.22;;;5.30;99.90;;;;;;25443936;23;20446;-61
2023/11/30 21:49:48;;;;;;;0.20;0.20;;;4.90;99.90;;;;;;25470187;23;20508;-51
2023/11/30 21:59:50;;;;;;;1.92;0.52;;;4.70;99.90;;;;;;25517996;23;20006;-53
2023/11/30 22:09:51;;;;;;;0.50;0.20;;;4.80;99.90;;;;;;25476679;23;20326;-52
2023/11/30 22:19:53;;;;;;;1.80;0.50;;;5.00;99.90;;;;;;25476536;23;20005;-61
2023/11/30 22:29:56;;;;;;;1.33;0.40;;;5.20;99.90;;;;;;25477724;23;20028;-60
2023/11/30 22:39:58;;;;;;;0.63;0.25;;;5.00;99.90;;;;;;25475857;23;20090;-53
2023/11/30 22:50:00;;;;;;;0.93;0.40;;;4.80;99.90;;;;;;25475883;23;20010;-50
2023/11/30 23:00:03;;;;;;;1.35;0.47;;;5.30;99.90;;;;;;25475450;23;20013;-61
2023/11/30 23:10:07;;;;;;;0.52;0.28;;;5.20;99.90;;;;;;25474772;23;20005;-61
2023/11/30 23:20:12;;;;;;;2.20;1.50;;;4.80;99.90;;;;;;25515141;23;20503;-61
2023/11/30 23:30:32;;;;;;;3.35;1.08;;;4.80;99.90;;;;;;25515050;23;20009;-51
2023/11/30 23:40:34;;;;;;;5.32;1.50;;;5.10;99.90;;;;;;25472632;23;20069;-61
2023/11/30 23:50:35;;;;;;;2.72;1.00;;;5.30;99.90;;;;;;25472794;23;20060;-51
